createdAt,value
2022-09-11T00:00:02.996Z,15.78
2022-09-11T00:05:14.582Z,15.86
2022-09-11T00:10:16.535Z,15.64
2022-09-11T00:15:18.280Z,15.50
2022-09-11T00:20:19.941Z,15.48
2022-09-11T00:25:21.580Z,15.40
2022-09-11T00:30:23.256Z,15.32
2022-09-11T00:35:25.902Z,15.31
2022-09-11T00:40:27.587Z,15.20
2022-09-11T00:45:29.291Z,15.19
2022-09-11T00:50:32.742Z,15.02
2022-09-11T00:55:37.934Z,14.95
2022-09-11T01:00:43.286Z,14.82
2022-09-11T01:05:48.316Z,14.64
2022-09-11T01:11:20.468Z,14.71
2022-09-11T01:16:43.849Z,14.54
2022-09-11T01:21:52.659Z,14.45
2022-09-11T01:27:19.349Z,14.26
2022-09-11T01:32:27.860Z,14.18
2022-09-11T01:37:56.164Z,14.10
2022-09-11T01:43:06.246Z,14.02
2022-09-11T01:48:09.925Z,14.15
2022-09-11T01:53:14.657Z,14.14
2022-09-11T01:58:24.829Z,14.00
2022-09-11T02:03:29.976Z,13.88
2022-09-11T02:08:38.210Z,13.85
2022-09-11T02:13:50.041Z,13.93
2022-09-11T02:19:04.794Z,13.91
2022-09-11T02:24:06.943Z,13.90
2022-09-11T02:29:08.828Z,13.83
2022-09-11T02:34:14.567Z,13.80
2022-09-11T02:39:46.385Z,13.77
2022-09-11T02:45:07.481Z,13.74
2022-09-11T02:50:18.963Z,13.90
2022-09-11T02:55:39.895Z,13.78
2022-09-11T03:00:42.549Z,13.63
2022-09-11T03:05:44.466Z,13.68
2022-09-11T03:10:46.773Z,13.72
2022-09-11T03:15:48.679Z,13.78
2022-09-11T03:20:51.889Z,13.89
2022-09-11T03:25:55.596Z,13.74
2022-09-11T03:30:58.259Z,13.61
2022-09-11T03:36:01.233Z,13.69
2022-09-11T03:41:03.531Z,13.55
2022-09-11T03:46:06.833Z,13.33
2022-09-11T03:51:08.922Z,13.41
2022-09-11T03:56:12.104Z,13.57
2022-09-11T04:01:20.004Z,13.52
2022-09-11T04:06:23.600Z,13.39
2022-09-11T04:11:25.384Z,13.26
2022-09-11T04:16:27.110Z,13.02
2022-09-11T04:21:31.242Z,13.34
2022-09-11T04:26:34.200Z,13.37
2022-09-11T04:31:44.068Z,13.52
2022-09-11T04:36:48.624Z,13.58
2022-09-11T04:41:55.947Z,13.61
2022-09-11T04:46:57.811Z,13.79
2022-09-11T04:52:05.895Z,13.89
2022-09-11T04:57:09.201Z,14.16
2022-09-11T05:02:12.593Z,14.28
2022-09-11T05:07:17.661Z,14.59
2022-09-11T05:12:22.937Z,14.83
2022-09-11T05:17:24.534Z,14.96
2022-09-11T05:22:26.520Z,15.17
2022-09-11T05:27:31.727Z,15.38
2022-09-11T05:32:33.465Z,15.45
2022-09-11T05:37:36.807Z,15.35
2022-09-11T05:42:38.795Z,15.49
2022-09-11T05:47:40.449Z,15.61
2022-09-11T05:52:42.180Z,15.99
2022-09-11T05:57:43.878Z,15.98
2022-09-11T06:02:48.976Z,16.34
2022-09-11T06:07:52.263Z,16.35
2022-09-11T06:12:54.047Z,16.13
2022-09-11T06:17:56.188Z,15.92
2022-09-11T06:22:57.914Z,15.76
2022-09-11T06:28:01.639Z,15.86
2022-09-11T06:33:03.922Z,15.74
2022-09-11T06:38:05.732Z,15.71
2022-09-11T06:43:08.218Z,15.81
2022-09-11T06:48:09.923Z,16.25
2022-09-11T06:53:14.260Z,16.16
2022-09-11T06:58:23.156Z,16.39
2022-09-11T07:03:25.307Z,16.36
2022-09-11T07:08:28.914Z,16.42
2022-09-11T07:13:36.742Z,16.73
2022-09-11T07:18:42.444Z,16.67
2022-09-11T07:23:50.818Z,17.03
2022-09-11T07:28:54.748Z,16.62
2022-09-11T07:33:57.668Z,16.27
2022-09-11T07:39:01.378Z,16.65
2022-09-11T07:44:25.910Z,17.37
2022-09-11T07:49:28.292Z,17.98
2022-09-11T07:54:31.095Z,19.84
2022-09-11T07:59:33.380Z,24.79
2022-09-11T08:04:37.180Z,21.28
2022-09-11T08:09:39.949Z,20.16
2022-09-11T08:14:43.305Z,22.27
2022-09-11T08:19:52.058Z,18.78
2022-09-11T08:24:53.812Z,19.73
2022-09-11T08:29:55.838Z,19.01
2022-09-11T08:34:57.738Z,18.85
2022-09-11T08:39:59.983Z,18.14
2022-09-11T08:45:04.206Z,17.13
2022-09-11T08:50:16.559Z,16.82
2022-09-11T08:55:43.767Z,17.01
2022-09-11T09:00:58.496Z,17.44
2022-09-11T09:06:25.420Z,17.82
2022-09-11T09:11:59.426Z,17.96
2022-09-11T09:17:14.780Z,17.97
2022-09-11T09:22:27.440Z,17.38
2022-09-11T09:27:34.857Z,17.38
2022-09-11T09:32:43.921Z,17.90
2022-09-11T09:37:45.946Z,17.94
2022-09-11T09:42:53.507Z,17.62
2022-09-11T09:47:55.130Z,17.12
2022-09-11T09:53:03.972Z,17.06
2022-09-11T09:58:07.219Z,17.28
2022-09-11T10:03:23.307Z,17.26
2022-09-11T10:08:30.493Z,17.33
2022-09-11T10:13:34.961Z,17.36
2022-09-11T10:18:40.265Z,17.31
2022-09-11T10:24:02.932Z,17.39
2022-09-11T10:29:14.181Z,16.86
2022-09-11T10:34:20.300Z,17.16
2022-09-11T10:39:25.117Z,17.04
2022-09-11T10:44:28.729Z,16.65
2022-09-11T10:49:30.532Z,16.42
2022-09-11T10:54:58.543Z,16.47
2022-09-11T11:00:13.568Z,16.65
2022-09-11T11:05:32.431Z,16.78
2022-09-11T11:10:47.261Z,17.13
2022-09-11T11:16:17.761Z,17.17
2022-09-11T11:21:35.270Z,17.56
2022-09-11T11:26:51.117Z,16.75
2022-09-11T11:32:17.605Z,16.59
2022-09-11T11:37:24.722Z,16.58
2022-09-11T11:42:35.469Z,16.59
2022-09-11T11:47:45.852Z,16.70
2022-09-11T11:52:59.347Z,16.17
2022-09-11T11:58:12.687Z,16.31
2022-09-11T12:03:30.032Z,16.12
2022-09-11T12:08:31.730Z,16.36
2022-09-11T12:13:43.207Z,16.39
2022-09-11T12:19:19.792Z,16.42
2022-09-11T12:24:43.227Z,16.36
2022-09-11T12:29:56.803Z,16.60
2022-09-11T12:35:02.961Z,16.53
2022-09-11T12:40:19.175Z,16.67
2022-09-11T12:45:36.848Z,16.39
2022-09-11T12:50:39.025Z,16.50
2022-09-11T12:56:16.669Z,16.50
2022-09-11T13:01:25.118Z,16.82
2022-09-11T13:06:40.919Z,17.15
2022-09-11T13:11:45.603Z,17.16
2022-09-11T13:16:52.516Z,18.80
2022-09-11T13:21:55.144Z,20.87
2022-09-11T13:27:14.006Z,21.43
2022-09-11T13:32:17.375Z,20.87
2022-09-11T13:37:37.389Z,20.55
2022-09-11T13:42:40.395Z,20.80
2022-09-11T13:47:42.364Z,21.16
2022-09-11T13:52:45.660Z,20.71
2022-09-11T13:57:53.106Z,20.44
2022-09-11T14:02:54.881Z,21.06
2022-09-11T14:08:01.481Z,19.31
2022-09-11T14:13:24.699Z,19.22
2022-09-11T14:18:46.162Z,19.18
2022-09-11T14:23:55.109Z,19.43
2022-09-11T14:29:03.313Z,20.22
2022-09-11T14:34:11.135Z,19.92
2022-09-11T14:39:15.756Z,19.96
2022-09-11T14:44:17.960Z,19.79
2022-09-11T14:49:19.641Z,19.27
2022-09-11T14:54:22.860Z,19.64
2022-09-11T14:59:24.914Z,20.45
2022-09-11T15:04:27.445Z,20.84
2022-09-11T15:09:29.246Z,20.78
2022-09-11T15:14:55.041Z,20.60
2022-09-11T15:19:54.137Z,20.60
2022-09-11T15:24:56.639Z,19.93
2022-09-11T15:29:58.267Z,19.53
2022-09-11T15:34:59.964Z,18.91
2022-09-11T15:40:02.004Z,18.90
2022-09-11T15:45:04.244Z,19.02
2022-09-11T15:50:06.519Z,18.82
2022-09-11T15:55:09.560Z,18.71
2022-09-11T16:00:12.067Z,18.83
2022-09-11T16:05:14.541Z,18.52
2022-09-11T16:10:16.169Z,18.87
2022-09-11T16:15:18.266Z,18.49
2022-09-11T16:20:20.263Z,18.14
2022-09-11T16:25:22.067Z,18.49
2022-09-11T16:30:42.483Z,18.18
2022-09-11T16:35:45.388Z,17.87
2022-09-11T16:40:47.018Z,17.87
2022-09-11T16:45:52.672Z,17.67
2022-09-11T16:50:55.241Z,17.80
2022-09-11T16:55:56.895Z,17.72
2022-09-11T17:00:58.886Z,17.64
2022-09-11T17:06:00.541Z,17.60
2022-09-11T17:11:02.545Z,17.41
2022-09-11T17:16:06.793Z,17.47
2022-09-11T17:21:09.827Z,17.17
2022-09-11T17:26:14.064Z,16.99
2022-09-11T17:31:19.168Z,16.84
2022-09-11T17:36:21.785Z,16.78
2022-09-11T17:41:23.472Z,16.48
2022-09-11T17:46:25.213Z,16.38
2022-09-11T17:51:27.923Z,16.45
2022-09-11T17:56:33.262Z,16.30
2022-09-11T18:01:34.961Z,16.31
2022-09-11T18:06:38.494Z,16.17
2022-09-11T18:11:43.130Z,16.18
2022-09-11T18:16:47.309Z,16.24
2022-09-11T18:21:50.510Z,16.19
2022-09-11T18:26:58.570Z,16.30
2022-09-11T18:32:03.496Z,16.11
2022-09-11T18:37:05.266Z,16.15
2022-09-11T18:42:07.178Z,16.09
2022-09-11T18:47:08.784Z,16.04
2022-09-11T18:52:10.868Z,16.07
2022-09-11T18:57:12.448Z,16.03
2022-09-11T19:02:14.482Z,16.01
2022-09-11T19:07:16.140Z,15.97
2022-09-11T19:12:17.765Z,16.30
2022-09-11T19:17:19.479Z,16.31
2022-09-11T19:22:22.881Z,16.55
2022-09-11T19:27:26.236Z,16.45
2022-09-11T19:32:28.195Z,16.67
2022-09-11T19:37:30.054Z,16.31
2022-09-11T19:42:32.494Z,15.86
2022-09-11T19:47:34.148Z,15.62
2022-09-11T19:52:35.744Z,15.61
2022-09-11T19:57:37.324Z,15.41
2022-09-11T20:02:39.124Z,15.54
2022-09-11T20:07:40.703Z,15.56
2022-09-11T20:12:42.310Z,15.40
2022-09-11T20:17:44.858Z,15.32
2022-09-11T20:22:46.779Z,15.37
2022-09-11T20:27:48.820Z,15.28
2022-09-11T20:32:50.725Z,15.20
2022-09-11T20:37:55.471Z,15.39
2022-09-11T20:42:57.105Z,15.26
2022-09-11T20:48:00.493Z,15.30
2022-09-11T20:53:02.310Z,15.30
2022-09-11T20:58:05.849Z,15.31
2022-09-11T21:03:07.437Z,15.20
2022-09-11T21:08:09.050Z,15.19
2022-09-11T21:13:14.671Z,15.11
2022-09-11T21:18:16.413Z,15.12
2022-09-11T21:23:18.031Z,15.24
2022-09-11T21:28:19.723Z,15.06
2022-09-11T21:33:21.390Z,14.93
2022-09-11T21:38:24.828Z,14.73
2022-09-11T21:43:27.827Z,14.95
2022-09-11T21:48:33.641Z,15.15
2022-09-11T21:53:38.353Z,14.94
2022-09-11T21:58:39.935Z,14.74
2022-09-11T22:03:41.738Z,14.84
2022-09-11T22:08:44.557Z,14.79
2022-09-11T22:13:47.748Z,14.76
2022-09-11T22:18:52.927Z,14.73
2022-09-11T22:23:55.286Z,14.78
2022-09-11T22:29:00.216Z,14.70
2022-09-11T22:34:02.080Z,14.82
2022-09-11T22:39:05.469Z,14.71
2022-09-11T22:44:08.164Z,14.69
2022-09-11T22:49:09.995Z,14.61
2022-09-11T22:54:13.636Z,14.83
2022-09-11T22:59:15.242Z,14.89
2022-09-11T23:04:17.026Z,14.82
2022-09-11T23:09:18.651Z,14.90
2022-09-11T23:14:20.259Z,15.09
2022-09-11T23:19:22.513Z,14.99
2022-09-11T23:24:24.164Z,14.99
2022-09-11T23:29:25.844Z,15.03
2022-09-11T23:34:27.501Z,14.90
2022-09-11T23:39:29.125Z,14.86
2022-09-11T23:44:30.786Z,14.92
2022-09-11T23:49:36.198Z,14.84
2022-09-11T23:54:38.112Z,14.79
2022-09-11T23:59:39.705Z,14.85
